Time;durP1;ratioP1;P1;durP2;ratioP2;P2;SDS_P1;SDS_P2;PMS_P1;PMS_P2;Temp;Humidity;BMP_temperature;BMP_pressure;BME280_temperature;BME280_humidity;BME280_pressure;Samples;Min_cycle;Max_cycle;Signal;HPM_P1;HPM_P2
2023/04/08 00:02:12;;;;;;;43.10;26.87;;;;;;;;;;752392;183;641744;-81
2023/04/08 00:04:38;;;;;;;44.30;24.83;;;;;;;;;;752236;183;678228;-81
2023/04/08 00:07:04;;;;;;;43.53;24.93;;;;;;;;;;755621;183;633402;-82
2023/04/08 00:09:30;;;;;;;52.13;25.70;;;;;;;;;;764223;182;628591;-81
2023/04/08 00:11:56;;;;;;;57.13;26.93;;;;;;;;;;761306;181;639859;-81
2023/04/08 00:14:21;;;;;;;51.90;28.80;;;;;;;;;;762286;181;630225;-81
2023/04/08 00:16:47;;;;;;;55.70;30.60;;;;;;;;;;751838;186;662317;-82
2023/04/08 00:19:13;;;;;;;55.00;26.60;;;;;;;;;;759216;181;626123;-82
2023/04/08 00:21:39;;;;;;;38.30;24.03;;;;;;;;;;752904;185;634068;-82
2023/04/08 00:24:05;;;;;;;46.37;24.43;;;;;;;;;;766221;183;634869;-81
2023/04/08 00:26:31;;;;;;;54.50;31.17;;;;;;;;;;760599;185;628881;-81
2023/04/08 00:28:57;;;;;;;41.27;24.93;;;;;;;;;;753839;185;629152;-81
2023/04/08 00:31:23;;;;;;;43.73;24.63;;;;;;;;;;747111;186;659021;-82
2023/04/08 00:33:48;;;;;;;41.33;24.00;;;;;;;;;;763665;182;631086;-81
2023/04/08 00:36:14;;;;;;;45.27;26.40;;;;;;;;;;770421;179;644019;-81
2023/04/08 00:38:40;;;;;;;55.87;28.40;;;;;;;;;;761973;182;634721;-81
2023/04/08 00:41:06;;;;;;;50.87;26.70;;;;;;;;;;771355;181;633039;-80
2023/04/08 00:43:32;;;;;;;52.90;26.10;;;;;;;;;;760307;182;629811;-80
2023/04/08 00:45:58;;;;;;;64.60;27.40;;;;;;;;;;758485;183;665390;-81
2023/04/08 00:48:23;;;;;;;60.03;26.53;;;;;;;;;;758614;184;635839;-81
2023/04/08 00:50:49;;;;;;;51.20;25.67;;;;;;;;;;759970;184;631318;-81
2023/04/08 00:53:15;;;;;;;44.10;24.00;;;;;;;;;;759109;185;642885;-81
2023/04/08 00:55:41;;;;;;;54.03;24.13;;;;;;;;;;751370;184;670244;-81
2023/04/08 00:58:07;;;;;;;52.33;24.37;;;;;;;;;;758749;182;635356;-81
2023/04/08 01:00:33;;;;;;;57.00;26.70;;;;;;;;;;762746;183;685368;-81
2023/04/08 01:03:01;;;;;;;61.70;25.70;;;;;;;;;;757574;183;647810;-81
2023/04/08 01:05:27;;;;;;;49.40;23.40;;;;;;;;;;756391;186;627924;-80
2023/04/08 01:07:53;;;;;;;58.73;25.97;;;;;;;;;;758071;182;676520;-80
2023/04/08 01:10:19;;;;;;;66.33;29.97;;;;;;;;;;762732;182;636863;-80
2023/04/08 01:12:47;;;;;;;40.33;21.07;;;;;;;;;;768617;181;620657;-79
2023/04/08 01:15:13;;;;;;;44.10;19.80;;;;;;;;;;770427;181;619145;-79
2023/04/08 01:17:39;;;;;;;31.30;18.20;;;;;;;;;;756740;182;630652;-76
2023/04/08 01:20:05;;;;;;;27.93;16.63;;;;;;;;;;764059;181;638056;-78
2023/04/08 01:22:34;;;;;;;39.87;16.13;;;;;;;;;;763366;182;684376;-80
2023/04/08 01:25:00;;;;;;;38.87;18.33;;;;;;;;;;762138;182;622421;-78
2023/04/08 01:27:26;;;;;;;30.83;18.10;;;;;;;;;;764110;182;634141;-80
2023/04/08 01:29:52;;;;;;;23.80;15.13;;;;;;;;;;763941;181;625345;-78
2023/04/08 01:32:17;;;;;;;31.47;18.77;;;;;;;;;;760093;184;628977;-80
2023/04/08 01:34:43;;;;;;;33.87;18.47;;;;;;;;;;757816;182;632529;-79
2023/04/08 01:37:09;;;;;;;41.87;19.73;;;;;;;;;;768656;181;636208;-80
2023/04/08 01:39:35;;;;;;;38.10;23.10;;;;;;;;;;769005;181;629587;-79
2023/04/08 01:42:01;;;;;;;46.03;25.50;;;;;;;;;;762822;181;635645;-79
2023/04/08 01:44:27;;;;;;;45.75;24.42;;;;;;;;;;759770;181;644695;-79
2023/04/08 01:46:53;;;;;;;41.63;23.33;;;;;;;;;;765724;182;629673;-78
2023/04/08 01:49:18;;;;;;;44.60;24.13;;;;;;;;;;755973;184;628321;-79
2023/04/08 01:51:44;;;;;;;41.93;23.20;;;;;;;;;;747384;185;640348;-79
2023/04/08 01:54:10;;;;;;;43.67;24.93;;;;;;;;;;761552;181;635064;-79
2023/04/08 01:56:36;;;;;;;47.50;25.47;;;;;;;;;;757632;181;633528;-78
2023/04/08 01:59:02;;;;;;;44.23;23.67;;;;;;;;;;757883;184;636405;-78
2023/04/08 02:01:28;;;;;;;49.20;25.50;;;;;;;;;;754743;185;619756;-78
2023/04/08 02:03:56;;;;;;;33.80;21.63;;;;;;;;;;756752;182;672167;-78
2023/04/08 02:06:19;;;;;;;44.83;23.60;;;;;;;;;;756383;184;629464;-78
2023/04/08 02:08:45;;;;;;;46.43;23.90;;;;;;;;;;758334;184;622339;-79
2023/04/08 02:11:11;;;;;;;40.17;21.77;;;;;;;;;;750418;185;619138;-79
2023/04/08 02:13:37;;;;;;;40.00;22.40;;;;;;;;;;753756;184;627575;-78
2023/04/08 02:16:03;;;;;;;44.23;23.30;;;;;;;;;;763140;181;629474;-79
2023/04/08 02:18:29;;;;;;;55.60;28.77;;;;;;;;;;768450;183;616513;-80
2023/04/08 02:20:57;;;;;;;48.43;25.83;;;;;;;;;;763757;182;631374;-79
2023/04/08 02:23:23;;;;;;;43.83;24.70;;;;;;;;;;767500;181;627955;-79
2023/04/08 02:25:49;;;;;;;43.43;24.00;;;;;;;;;;758697;184;622367;-79
2023/04/08 02:28:15;;;;;;;43.30;24.40;;;;;;;;;;749042;188;640362;-80
2023/04/08 02:30:41;;;;;;;47.27;24.87;;;;;;;;;;751120;187;632894;-79
2023/04/08 02:33:06;;;;;;;47.00;25.43;;;;;;;;;;753733;184;636660;-80
2023/04/08 02:35:32;;;;;;;44.87;22.47;;;;;;;;;;757396;184;626914;-79
2023/04/08 02:37:58;;;;;;;43.63;23.73;;;;;;;;;;754478;183;623729;-78
2023/04/08 02:40:26;;;;;;;43.30;24.07;;;;;;;;;;768176;182;643137;-80
2023/04/08 02:42:52;;;;;;;47.30;24.33;;;;;;;;;;771961;182;666387;-79
2023/04/08 02:45:17;;;;;;;52.60;23.93;;;;;;;;;;764963;183;628241;-79
2023/04/08 02:47:43;;;;;;;47.07;25.00;;;;;;;;;;765468;181;636980;-80
2023/04/08 02:50:09;;;;;;;54.87;26.37;;;;;;;;;;752800;185;623215;-79
2023/04/08 02:52:35;;;;;;;50.53;22.83;;;;;;;;;;767551;182;627294;-78
2023/04/08 02:55:01;;;;;;;41.27;20.80;;;;;;;;;;755943;183;637430;-80
2023/04/08 02:57:27;;;;;;;39.30;21.10;;;;;;;;;;750784;185;635763;-80
2023/04/08 02:59:53;;;;;;;51.83;23.50;;;;;;;;;;771250;180;627917;-79
2023/04/08 03:02:19;;;;;;;42.13;21.97;;;;;;;;;;768806;182;630446;-79
2023/04/08 03:04:45;;;;;;;55.20;22.87;;;;;;;;;;751422;184;637526;-80
2023/04/08 03:07:10;;;;;;;51.83;23.07;;;;;;;;;;763841;182;614638;-79
2023/04/08 03:09:36;;;;;;;55.67;18.17;;;;;;;;;;769412;181;632505;-80
2023/04/08 03:12:02;;;;;;;50.27;19.90;;;;;;;;;;768835;181;714794;-79
2023/04/08 03:14:28;;;;;;;41.87;16.23;;;;;;;;;;769543;181;622376;-78
2023/04/08 03:16:54;;;;;;;59.13;21.30;;;;;;;;;;764563;183;637433;-78
2023/04/08 03:19:20;;;;;;;45.50;21.00;;;;;;;;;;763228;183;622530;-78
2023/04/08 03:21:45;;;;;;;44.27;19.17;;;;;;;;;;762198;181;625143;-79
2023/04/08 03:24:11;;;;;;;56.10;20.40;;;;;;;;;;762662;184;633845;-80
2023/04/08 03:26:37;;;;;;;38.30;19.23;;;;;;;;;;767215;181;626552;-79
2023/04/08 03:29:03;;;;;;;69.17;22.57;;;;;;;;;;763212;182;637886;-77
2023/04/08 03:31:29;;;;;;;64.63;21.50;;;;;;;;;;753553;184;625419;-79
2023/04/08 03:33:55;;;;;;;57.70;23.03;;;;;;;;;;762759;181;632216;-79
2023/04/08 03:36:20;;;;;;;49.57;19.80;;;;;;;;;;770501;182;634192;-77
2023/04/08 03:38:46;;;;;;;34.83;18.60;;;;;;;;;;771116;183;627154;-79
2023/04/08 03:41:12;;;;;;;61.77;22.13;;;;;;;;;;763334;182;627174;-78
2023/04/08 03:43:38;;;;;;;41.27;20.00;;;;;;;;;;765655;181;632553;-79
2023/04/08 03:46:04;;;;;;;47.93;20.80;;;;;;;;;;771311;181;632035;-80
2023/04/08 03:48:30;;;;;;;52.13;22.07;;;;;;;;;;765712;183;626920;-78
2023/04/08 03:50:55;;;;;;;45.00;20.30;;;;;;;;;;750192;184;632780;-79
2023/04/08 03:53:28;;;;;;;48.10;21.57;;;;;;;;;;749492;185;625478;-80
2023/04/08 03:55:51;;;;;;;56.53;21.93;;;;;;;;;;761931;184;628022;-80
2023/04/08 03:58:17;;;;;;;45.43;22.13;;;;;;;;;;755258;184;626762;-80
2023/04/08 04:00:43;;;;;;;45.33;19.57;;;;;;;;;;756538;184;651625;-79
2023/04/08 04:03:11;;;;;;;36.17;18.17;;;;;;;;;;755592;185;619152;-79
2023/04/08 04:05:35;;;;;;;42.80;20.53;;;;;;;;;;765374;181;628348;-80
2023/04/08 04:08:01;;;;;;;34.83;18.73;;;;;;;;;;762521;183;627640;-78
2023/04/08 04:10:26;;;;;;;32.50;16.77;;;;;;;;;;760775;182;633239;-80
2023/04/08 04:12:52;;;;;;;27.93;15.70;;;;;;;;;;765678;181;628421;-79
2023/04/08 04:15:18;;;;;;;30.63;17.43;;;;;;;;;;763432;182;649746;-79
2023/04/08 04:17:44;;;;;;;33.60;17.83;;;;;;;;;;763639;183;630248;-80
2023/04/08 04:20:10;;;;;;;34.33;18.17;;;;;;;;;;768135;181;633083;-79
2023/04/08 04:22:36;;;;;;;32.67;15.40;;;;;;;;;;768094;181;659827;-79
2023/04/08 04:25:02;;;;;;;27.97;14.90;;;;;;;;;;766178;182;661943;-79
2023/04/08 04:27:28;;;;;;;27.43;15.03;;;;;;;;;;761191;180;658813;-78
2023/04/08 04:29:54;;;;;;;26.63;15.33;;;;;;;;;;762376;181;644003;-78
2023/04/08 04:32:19;;;;;;;38.20;19.23;;;;;;;;;;763900;181;629122;-77
2023/04/08 04:34:45;;;;;;;54.90;27.90;;;;;;;;;;760900;181;704415;-79
2023/04/08 04:37:11;;;;;;;32.93;18.53;;;;;;;;;;769477;181;621090;-79
2023/04/08 04:39:37;;;;;;;30.70;17.57;;;;;;;;;;766884;181;643404;-78
2023/04/08 04:42:03;;;;;;;46.60;17.30;;;;;;;;;;767663;182;654105;-78
2023/04/08 04:44:29;;;;;;;34.37;15.80;;;;;;;;;;771011;180;657143;-79
2023/04/08 04:46:55;;;;;;;34.20;16.80;;;;;;;;;;764202;183;681043;-80
2023/04/08 04:49:20;;;;;;;47.23;19.30;;;;;;;;;;762086;181;638671;-78
2023/04/08 04:51:46;;;;;;;44.00;20.50;;;;;;;;;;768171;182;627772;-78
2023/04/08 04:54:12;;;;;;;49.87;20.60;;;;;;;;;;764985;180;635127;-79
2023/04/08 04:56:38;;;;;;;37.60;19.40;;;;;;;;;;763120;181;631954;-78
2023/04/08 04:59:04;;;;;;;44.50;21.03;;;;;;;;;;764699;181;625843;-79
2023/04/08 05:01:30;;;;;;;42.50;23.17;;;;;;;;;;758592;183;626142;-78
2023/04/08 05:03:56;;;;;;;37.87;19.20;;;;;;;;;;749736;183;630817;-80
2023/04/08 05:06:21;;;;;;;40.03;18.47;;;;;;;;;;730640;190;674901;-79
2023/04/08 05:08:47;;;;;;;42.83;20.97;;;;;;;;;;766128;183;817238;-77
2023/04/08 05:11:13;;;;;;;44.57;23.67;;;;;;;;;;754394;182;801060;-77
2023/04/08 05:13:40;;;;;;;45.00;23.20;;;;;;;;;;762527;182;633760;-79
2023/04/08 05:16:06;;;;;;;45.73;20.33;;;;;;;;;;759636;182;630616;-78
2023/04/08 05:18:32;;;;;;;42.67;19.33;;;;;;;;;;761918;181;629875;-78
2023/04/08 05:20:58;;;;;;;48.83;20.80;;;;;;;;;;757300;181;680876;-77
2023/04/08 05:23:23;;;;;;;42.27;19.23;;;;;;;;;;764828;183;640389;-79
2023/04/08 05:25:49;;;;;;;42.97;21.43;;;;;;;;;;760556;182;649207;-79
2023/04/08 05:28:15;;;;;;;43.03;19.90;;;;;;;;;;750329;186;636077;-77
2023/04/08 05:30:41;;;;;;;56.73;20.57;;;;;;;;;;728895;190;653566;-79
2023/04/08 05:33:07;;;;;;;47.90;21.50;;;;;;;;;;764244;183;868841;-77
2023/04/08 05:35:34;;;;;;;37.63;19.57;;;;;;;;;;753839;182;630313;-77
2023/04/08 05:38:00;;;;;;;48.10;21.37;;;;;;;;;;753142;182;638207;-79
2023/04/08 05:40:26;;;;;;;56.67;24.33;;;;;;;;;;757921;182;684153;-77
2023/04/08 05:42:52;;;;;;;53.73;25.67;;;;;;;;;;757890;182;667616;-79
2023/04/08 05:45:18;;;;;;;46.30;20.50;;;;;;;;;;763568;182;624512;-78
2023/04/08 05:47:43;;;;;;;54.83;27.63;;;;;;;;;;758128;184;641428;-78
2023/04/08 05:50:10;;;;;;;41.63;22.33;;;;;;;;;;764603;181;653627;-78
2023/04/08 05:52:35;;;;;;;46.50;22.13;;;;;;;;;;759709;182;633417;-78
2023/04/08 05:55:01;;;;;;;59.20;26.63;;;;;;;;;;768392;181;637565;-79
2023/04/08 05:57:27;;;;;;;57.20;27.37;;;;;;;;;;760647;182;639749;-79
2023/04/08 05:59:53;;;;;;;53.03;25.43;;;;;;;;;;761976;181;646911;-79
2023/04/08 06:02:19;;;;;;;56.80;25.77;;;;;;;;;;762517;183;633099;-79
2023/04/08 06:04:45;;;;;;;50.90;21.63;;;;;;;;;;755892;184;637341;-79
2023/04/08 06:07:10;;;;;;;55.77;26.83;;;;;;;;;;759681;182;628746;-80
2023/04/08 06:09:36;;;;;;;61.23;27.73;;;;;;;;;;752042;185;642106;-80
2023/04/08 06:12:02;;;;;;;55.63;24.30;;;;;;;;;;755760;182;623590;-79
2023/04/08 06:14:28;;;;;;;53.77;24.50;;;;;;;;;;756066;183;654535;-80
2023/04/08 06:16:55;;;;;;;59.60;30.57;;;;;;;;;;754522;182;629918;-79
2023/04/08 06:19:20;;;;;;;60.20;26.07;;;;;;;;;;753501;184;639600;-80
2023/04/08 06:21:46;;;;;;;54.27;26.43;;;;;;;;;;758012;182;614372;-79
2023/04/08 06:24:12;;;;;;;51.07;24.60;;;;;;;;;;756504;183;631233;-80
2023/04/08 06:26:37;;;;;;;53.43;24.50;;;;;;;;;;758714;182;626373;-80
2023/04/08 06:29:03;;;;;;;51.73;25.57;;;;;;;;;;767478;182;638079;-79
2023/04/08 06:31:29;;;;;;;42.77;23.77;;;;;;;;;;763974;182;660740;-80
2023/04/08 06:33:55;;;;;;;49.43;23.90;;;;;;;;;;764291;183;659845;-80
2023/04/08 06:36:21;;;;;;;62.60;25.47;;;;;;;;;;766950;180;631495;-79
2023/04/08 06:38:47;;;;;;;56.23;27.53;;;;;;;;;;762570;182;624760;-78
2023/04/08 06:41:13;;;;;;;53.33;27.03;;;;;;;;;;761900;183;628830;-80
2023/04/08 06:43:38;;;;;;;58.10;28.90;;;;;;;;;;756566;184;625159;-80
2023/04/08 06:46:04;;;;;;;64.47;26.70;;;;;;;;;;753642;184;632743;-80
2023/04/08 06:48:30;;;;;;;43.30;24.33;;;;;;;;;;760493;182;649502;-79
2023/04/08 06:50:56;;;;;;;56.30;26.93;;;;;;;;;;762791;183;631357;-80
2023/04/08 06:53:22;;;;;;;57.63;27.30;;;;;;;;;;767519;181;713260;-81
2023/04/08 06:55:48;;;;;;;56.40;27.07;;;;;;;;;;754822;183;649022;-81
2023/04/08 06:58:14;;;;;;;54.13;25.53;;;;;;;;;;756612;182;633247;-81
2023/04/08 07:00:40;;;;;;;63.50;32.40;;;;;;;;;;768470;180;634961;-80
2023/04/08 07:03:05;;;;;;;57.20;27.00;;;;;;;;;;763076;181;719793;-81
2023/04/08 07:05:31;;;;;;;46.17;23.00;;;;;;;;;;767186;180;656132;-78
2023/04/08 07:07:57;;;;;;;46.53;22.70;;;;;;;;;;759427;184;632275;-81
2023/04/08 07:10:23;;;;;;;47.03;24.83;;;;;;;;;;759840;184;705918;-79
2023/04/08 07:12:49;;;;;;;44.40;22.43;;;;;;;;;;758311;184;659630;-79
2023/04/08 07:15:15;;;;;;;47.50;24.77;;;;;;;;;;765041;182;637986;-80
2023/04/08 07:17:41;;;;;;;42.63;23.63;;;;;;;;;;767922;181;642591;-78
2023/04/08 07:20:07;;;;;;;46.10;23.73;;;;;;;;;;763054;181;648892;-79
2023/04/08 07:22:33;;;;;;;46.20;22.90;;;;;;;;;;753780;183;629709;-80
2023/04/08 07:24:58;;;;;;;51.10;25.17;;;;;;;;;;768385;182;633628;-78
2023/04/08 07:27:24;;;;;;;49.67;23.23;;;;;;;;;;764733;182;630800;-80
2023/04/08 07:29:51;;;;;;;54.80;25.17;;;;;;;;;;763390;184;635723;-81
2023/04/08 07:32:17;;;;;;;43.17;24.00;;;;;;;;;;752333;185;628523;-79
2023/04/08 07:34:43;;;;;;;61.80;31.37;;;;;;;;;;763829;182;782015;-79
2023/04/08 07:37:09;;;;;;;59.77;30.57;;;;;;;;;;760676;182;661987;-80
2023/04/08 07:39:34;;;;;;;56.50;27.03;;;;;;;;;;751493;185;649864;-80
2023/04/08 07:42:00;;;;;;;49.00;25.40;;;;;;;;;;757559;184;626636;-78
2023/04/08 07:44:26;;;;;;;52.13;28.53;;;;;;;;;;771439;180;635057;-79
2023/04/08 07:46:52;;;;;;;48.37;23.73;;;;;;;;;;764164;182;646730;-79
2023/04/08 07:49:18;;;;;;;56.83;29.17;;;;;;;;;;759827;184;628058;-79
2023/04/08 07:51:44;;;;;;;53.93;27.97;;;;;;;;;;747706;184;660236;-80
2023/04/08 07:54:11;;;;;;;62.27;28.50;;;;;;;;;;757232;182;649332;-78
2023/04/08 07:56:39;;;;;;;52.20;28.17;;;;;;;;;;766464;182;630986;-78
2023/04/08 07:59:02;;;;;;;55.03;27.13;;;;;;;;;;768312;181;627255;-80
2023/04/08 08:01:30;;;;;;;68.77;31.10;;;;;;;;;;768108;181;720685;-80
2023/04/08 08:03:53;;;;;;;65.73;31.90;;;;;;;;;;763049;179;683876;-81
2023/04/08 08:06:19;;;;;;;89.83;42.53;;;;;;;;;;759692;182;676397;-79
2023/04/08 08:08:45;;;;;;;73.63;34.60;;;;;;;;;;761941;181;631407;-80
2023/04/08 08:11:11;;;;;;;57.27;26.93;;;;;;;;;;753631;182;643709;-80
2023/04/08 08:13:37;;;;;;;84.40;42.43;;;;;;;;;;762260;182;625503;-80
2023/04/08 08:16:02;;;;;;;74.43;42.73;;;;;;;;;;759098;181;650808;-79
2023/04/08 08:18:28;;;;;;;77.20;34.47;;;;;;;;;;758954;183;630541;-80
2023/04/08 08:20:55;;;;;;;63.10;32.90;;;;;;;;;;760947;183;631515;-80
2023/04/08 08:23:20;;;;;;;72.33;40.03;;;;;;;;;;755899;184;633361;-79
2023/04/08 08:25:46;;;;;;;61.33;33.03;;;;;;;;;;756816;184;630125;-79
2023/04/08 08:28:12;;;;;;;69.87;34.70;;;;;;;;;;761737;181;634738;-80
2023/04/08 08:30:38;;;;;;;78.13;42.47;;;;;;;;;;767963;181;644003;-80
2023/04/08 08:33:03;;;;;;;96.23;45.37;;;;;;;;;;764153;181;636000;-79
2023/04/08 08:35:29;;;;;;;83.70;42.57;;;;;;;;;;763057;181;644589;-80
2023/04/08 08:37:55;;;;;;;91.47;44.60;;;;;;;;;;766643;182;623984;-80
2023/04/08 08:40:21;;;;;;;72.53;37.00;;;;;;;;;;756586;184;693375;-79
2023/04/08 08:42:49;;;;;;;90.07;46.20;;;;;;;;;;759868;183;617650;-78
2023/04/08 08:45:15;;;;;;;77.80;43.57;;;;;;;;;;767271;182;629783;-80
2023/04/08 08:47:40;;;;;;;70.43;34.70;;;;;;;;;;766793;181;645793;-79
2023/04/08 08:50:06;;;;;;;69.43;37.63;;;;;;;;;;762094;181;628732;-79
2023/04/08 08:52:33;;;;;;;66.60;34.73;;;;;;;;;;760315;181;633451;-78
2023/04/08 08:55:00;;;;;;;70.67;39.13;;;;;;;;;;755913;185;623981;-78
2023/04/08 08:57:25;;;;;;;75.40;39.87;;;;;;;;;;766742;181;623670;-79
2023/04/08 08:59:50;;;;;;;68.27;35.70;;;;;;;;;;762182;182;637072;-80
2023/04/08 09:02:22;;;;;;;71.90;36.33;;;;;;;;;;768677;182;617041;-78
2023/04/08 09:04:57;;;;;;;76.03;38.77;;;;;;;;;;762554;181;630949;-81
2023/04/08 09:07:22;;;;;;;71.63;37.30;;;;;;;;;;761730;182;651449;-80
2023/04/08 09:09:49;;;;;;;74.93;39.07;;;;;;;;;;764132;181;653875;-80
2023/04/08 09:12:14;;;;;;;72.97;38.70;;;;;;;;;;766814;181;650879;-81
2023/04/08 09:14:40;;;;;;;71.70;39.63;;;;;;;;;;762186;183;630455;-81
2023/04/08 09:17:06;;;;;;;79.50;39.73;;;;;;;;;;759653;181;658489;-79
2023/04/08 09:19:32;;;;;;;55.25;32.90;;;;;;;;;;762425;181;671142;-80
2023/04/08 09:22:04;;;;;;;79.57;47.23;;;;;;;;;;756380;184;611755;-81
2023/04/08 09:24:30;;;;;;;66.47;37.13;;;;;;;;;;756788;183;653562;-79
2023/04/08 09:26:56;;;;;;;67.77;35.67;;;;;;;;;;757910;182;615432;-81
2023/04/08 09:29:21;;;;;;;56.80;32.20;;;;;;;;;;766869;182;648407;-79
2023/04/08 09:31:47;;;;;;;67.97;36.30;;;;;;;;;;758493;182;642198;-78
2023/04/08 09:34:15;;;;;;;74.67;38.77;;;;;;;;;;759025;182;633135;-80
2023/04/08 09:36:39;;;;;;;75.63;38.70;;;;;;;;;;759272;182;625529;-79
2023/04/08 09:39:05;;;;;;;58.20;28.23;;;;;;;;;;762366;181;632054;-80
2023/04/08 09:41:32;;;;;;;55.47;30.93;;;;;;;;;;760809;183;625785;-79
2023/04/08 09:43:57;;;;;;;68.17;36.07;;;;;;;;;;757775;183;624443;-79
2023/04/08 09:46:24;;;;;;;71.33;36.37;;;;;;;;;;772378;181;638492;-79
2023/04/08 09:49:09;;;;;;;60.33;32.50;;;;;;;;;;762946;185;628801;-80
2023/04/08 09:51:35;;;;;;;64.63;33.40;;;;;;;;;;752129;182;637560;-80
2023/04/08 09:54:01;;;;;;;64.10;36.20;;;;;;;;;;762082;182;648430;-80
2023/04/08 09:56:27;;;;;;;54.60;31.90;;;;;;;;;;767326;182;635183;-81
2023/04/08 09:58:54;;;;;;;50.07;26.93;;;;;;;;;;767593;183;643338;-79
2023/04/08 10:01:20;;;;;;;64.07;36.20;;;;;;;;;;746770;185;648015;-79
2023/04/08 10:03:47;;;;;;;49.53;26.10;;;;;;;;;;749588;187;649211;-80
2023/04/08 10:06:13;;;;;;;71.40;38.43;;;;;;;;;;763364;185;648070;-80
2023/04/08 10:08:39;;;;;;;53.33;29.17;;;;;;;;;;766685;181;631474;-79
2023/04/08 10:11:05;;;;;;;82.30;41.90;;;;;;;;;;762410;182;636780;-78
2023/04/08 10:13:31;;;;;;;89.27;45.00;;;;;;;;;;764775;183;614590;-78
2023/04/08 10:16:14;;;;;;;61.17;30.97;;;;;;;;;;762755;181;646258;-78
2023/04/08 10:18:41;;;;;;;75.57;39.60;;;;;;;;;;755921;181;702592;-80
2023/04/08 10:21:06;;;;;;;70.50;34.20;;;;;;;;;;752377;182;673780;-78
2023/04/08 10:23:48;;;;;;;74.53;41.83;;;;;;;;;;761602;182;652941;-80
2023/04/08 10:26:14;;;;;;;95.67;49.80;;;;;;;;;;748061;183;635291;-80
2023/04/08 10:28:40;;;;;;;67.67;33.47;;;;;;;;;;768899;181;644283;-78
2023/04/08 10:31:06;;;;;;;82.00;44.07;;;;;;;;;;761269;181;645858;-79
2023/04/08 10:33:33;;;;;;;75.03;35.27;;;;;;;;;;765148;181;658763;-80
2023/04/08 10:36:09;;;;;;;71.80;40.20;;;;;;;;;;766010;181;642491;-78
2023/04/08 10:38:34;;;;;;;66.27;35.70;;;;;;;;;;761517;182;777299;-79
2023/04/08 10:41:01;;;;;;;72.57;35.47;;;;;;;;;;772561;180;636468;-78
2023/04/08 10:43:26;;;;;;;58.80;34.43;;;;;;;;;;765350;182;629876;-78
2023/04/08 10:45:52;;;;;;;71.57;36.53;;;;;;;;;;773895;180;622189;-79
2023/04/08 10:48:18;;;;;;;73.60;41.50;;;;;;;;;;762740;181;643793;-80
2023/04/08 10:50:44;;;;;;;66.47;37.93;;;;;;;;;;765637;181;631578;-80
2023/04/08 10:53:10;;;;;;;76.87;42.63;;;;;;;;;;768144;181;628853;-81
2023/04/08 10:55:35;;;;;;;79.73;46.23;;;;;;;;;;763161;181;706287;-80
2023/04/08 10:58:04;;;;;;;64.80;36.53;;;;;;;;;;761215;181;771629;-79
2023/04/08 11:00:32;;;;;;;52.47;30.60;;;;;;;;;;761882;183;635266;-78
2023/04/08 11:02:59;;;;;;;70.20;47.80;;;;;;;;;;760932;183;669329;-79
2023/04/08 11:05:26;;;;;;;56.00;32.10;;;;;;;;;;758560;183;664354;-80
2023/04/08 11:07:51;;;;;;;61.60;31.90;;;;;;;;;;764601;181;626136;-79
2023/04/08 11:10:17;;;;;;;74.80;38.90;;;;;;;;;;768243;181;615943;-79
2023/04/08 11:12:43;;;;;;;59.27;31.20;;;;;;;;;;760223;180;632212;-81
2023/04/08 11:15:09;;;;;;;74.12;33.50;;;;;;;;;;751412;185;648568;-80
2023/04/08 11:17:35;;;;;;;72.33;43.43;;;;;;;;;;759228;185;710498;-80
2023/04/08 11:20:05;;;;;;;55.40;33.60;;;;;;;;;;753751;183;719980;-78
2023/04/08 11:22:27;;;;;;;62.37;32.97;;;;;;;;;;760907;183;618213;-79
2023/04/08 11:24:53;;;;;;;55.27;30.67;;;;;;;;;;755846;182;634000;-79
2023/04/08 11:27:19;;;;;;;50.90;31.90;;;;;;;;;;766535;179;617246;-76
2023/04/08 11:29:44;;;;;;;48.90;28.20;;;;;;;;;;761258;181;774070;-78
2023/04/08 11:32:10;;;;;;;53.27;31.23;;;;;;;;;;763934;182;631033;-79
2023/04/08 11:34:36;;;;;;;38.43;21.50;;;;;;;;;;761388;182;626534;-80
2023/04/08 11:37:02;;;;;;;245.00;102.90;;;;;;;;;;760824;182;638006;-79
2023/04/08 11:39:28;;;;;;;67.40;33.03;;;;;;;;;;763238;183;626701;-78
2023/04/08 11:41:54;;;;;;;83.13;45.10;;;;;;;;;;761582;184;636948;-77
2023/04/08 11:44:20;;;;;;;85.37;43.60;;;;;;;;;;755431;183;621133;-78
2023/04/08 11:46:54;;;;;;;69.33;37.80;;;;;;;;;;763324;181;627696;-78
2023/04/08 11:49:17;;;;;;;58.03;34.97;;;;;;;;;;752033;182;659316;-78
2023/04/08 11:51:58;;;;;;;61.97;37.07;;;;;;;;;;770941;181;638261;-79
2023/04/08 11:54:25;;;;;;;76.70;38.00;;;;;;;;;;748315;184;627669;-80
2023/04/08 11:56:52;;;;;;;36.57;21.60;;;;;;;;;;760251;183;723878;-78
2023/04/08 11:59:16;;;;;;;61.93;25.67;;;;;;;;;;761363;181;659316;-77
2023/04/08 12:01:43;;;;;;;48.03;27.37;;;;;;;;;;770113;179;727306;-77
2023/04/08 12:04:09;;;;;;;41.27;21.50;;;;;;;;;;761824;182;686050;-78
2023/04/08 12:06:35;;;;;;;28.73;18.60;;;;;;;;;;762210;180;665635;-78
2023/04/08 12:09:00;;;;;;;37.53;24.10;;;;;;;;;;764962;181;629320;-78
2023/04/08 12:11:26;;;;;;;44.83;28.90;;;;;;;;;;771521;177;624728;-78
2023/04/08 12:13:52;;;;;;;38.63;23.37;;;;;;;;;;754671;182;627069;-79
2023/04/08 12:16:18;;;;;;;48.13;25.57;;;;;;;;;;758883;181;1353658;-79
2023/04/08 12:18:44;;;;;;;36.03;22.73;;;;;;;;;;767066;181;625092;-79
2023/04/08 12:21:10;;;;;;;26.70;18.10;;;;;;;;;;765038;180;666802;-78
2023/04/08 12:23:35;;;;;;;42.93;24.50;;;;;;;;;;748724;186;691434;-79
2023/04/08 12:26:01;;;;;;;47.87;26.77;;;;;;;;;;755796;182;647883;-78
2023/04/08 12:28:27;;;;;;;41.80;21.60;;;;;;;;;;761388;183;645589;-80
2023/04/08 12:30:53;;;;;;;42.83;23.17;;;;;;;;;;759130;182;746194;-81
2023/04/08 12:33:19;;;;;;;44.43;27.93;;;;;;;;;;755294;182;673878;-78
2023/04/08 12:35:45;;;;;;;36.00;21.20;;;;;;;;;;750456;184;622793;-79
2023/04/08 12:38:11;;;;;;;35.77;23.23;;;;;;;;;;764880;182;649653;-79
2023/04/08 12:40:37;;;;;;;36.20;22.63;;;;;;;;;;762084;182;706845;-80
2023/04/08 12:43:03;;;;;;;40.17;25.47;;;;;;;;;;756749;184;638023;-78
2023/04/08 12:45:28;;;;;;;43.33;27.37;;;;;;;;;;763319;182;618265;-79
2023/04/08 12:47:54;;;;;;;39.87;26.27;;;;;;;;;;762261;182;713443;-77
2023/04/08 12:50:20;;;;;;;43.97;25.87;;;;;;;;;;762972;182;638068;-80
2023/04/08 12:52:46;;;;;;;40.27;25.73;;;;;;;;;;763868;179;639998;-80
2023/04/08 12:55:12;;;;;;;56.23;32.43;;;;;;;;;;760031;182;683286;-79
2023/04/08 12:57:38;;;;;;;36.00;19.60;;;;;;;;;;761186;182;653326;-80
2023/04/08 13:00:04;;;;;;;37.10;22.47;;;;;;;;;;769444;179;657820;-79
2023/04/08 13:02:30;;;;;;;38.50;21.40;;;;;;;;;;768125;181;641822;-81
2023/04/08 13:04:56;;;;;;;40.10;26.10;;;;;;;;;;766469;181;640854;-80
2023/04/08 13:07:29;;;;;;;39.97;27.17;;;;;;;;;;766850;184;628817;-79
2023/04/08 13:09:55;;;;;;;47.63;26.63;;;;;;;;;;764565;181;644730;-80
2023/04/08 13:12:21;;;;;;;45.60;23.93;;;;;;;;;;756962;183;757525;-79
2023/04/08 13:14:47;;;;;;;50.17;28.20;;;;;;;;;;751336;182;640910;-80
2023/04/08 13:17:12;;;;;;;44.73;29.53;;;;;;;;;;758551;183;668560;-79
2023/04/08 13:19:38;;;;;;;42.30;27.50;;;;;;;;;;764484;181;629620;-79
2023/04/08 13:22:04;;;;;;;39.10;25.43;;;;;;;;;;764919;182;628025;-79
2023/04/08 13:24:30;;;;;;;43.67;27.27;;;;;;;;;;766752;181;617189;-80
2023/04/08 13:26:56;;;;;;;44.67;29.07;;;;;;;;;;751784;182;697197;-78
2023/04/08 13:29:22;;;;;;;36.73;24.87;;;;;;;;;;760986;182;638299;-79
2023/04/08 13:31:48;;;;;;;47.30;29.17;;;;;;;;;;763341;182;749559;-78
2023/04/08 13:34:13;;;;;;;37.37;25.40;;;;;;;;;;765077;181;691244;-79
2023/04/08 13:36:39;;;;;;;46.03;28.77;;;;;;;;;;756748;182;675281;-78
2023/04/08 13:39:05;;;;;;;39.73;25.13;;;;;;;;;;761272;181;623875;-78
2023/04/08 13:41:32;;;;;;;38.43;24.10;;;;;;;;;;757995;183;633066;-78
2023/04/08 13:43:57;;;;;;;44.67;27.53;;;;;;;;;;763088;181;702848;-78
2023/04/08 13:46:23;;;;;;;43.70;29.50;;;;;;;;;;763176;181;643068;-80
2023/04/08 13:48:49;;;;;;;45.50;26.90;;;;;;;;;;763683;181;613768;-80
2023/04/08 13:51:15;;;;;;;40.97;27.90;;;;;;;;;;758926;182;639187;-82
2023/04/08 13:53:41;;;;;;;43.37;28.40;;;;;;;;;;758246;183;697329;-80
2023/04/08 13:56:07;;;;;;;41.47;28.37;;;;;;;;;;754071;182;629687;-79
2023/04/08 13:58:32;;;;;;;45.37;29.70;;;;;;;;;;759634;181;633999;-79